sensor_id;sensor_type;location;lat;lon;timestamp;P1;durP1;ratioP1;P2;durP2;ratioP2
53309;SDS011;39197;53.200;5.792;2023-03-01T00:00:46;28.67;;;20.20;;
53309;SDS011;39197;53.200;5.792;2023-03-01T00:03:11;23.27;;;18.70;;
53309;SDS011;39197;53.200;5.792;2023-03-01T00:05:43;23.50;;;19.50;;
53309;SDS011;39197;53.200;5.792;2023-03-01T00:10:36;28.88;;;20.15;;
53309;SDS011;39197;53.200;5.792;2023-03-01T00:13:01;29.55;;;23.25;;
53309;SDS011;39197;53.200;5.792;2023-03-01T00:15:27;32.92;;;22.42;;
53309;SDS011;39197;53.200;5.792;2023-03-01T00:17:53;34.80;;;23.20;;
53309;SDS011;39197;53.200;5.792;2023-03-01T00:20:18;31.92;;;24.02;;
53309;SDS011;39197;53.200;5.792;2023-03-01T00:22:44;32.13;;;24.33;;
53309;SDS011;39197;53.200;5.792;2023-03-01T00:25:10;37.22;;;26.85;;
53309;SDS011;39197;53.200;5.792;2023-03-01T00:27:35;32.95;;;24.17;;
53309;SDS011;39197;53.200;5.792;2023-03-01T00:30:01;37.03;;;27.58;;
53309;SDS011;39197;53.200;5.792;2023-03-01T00:32:27;37.25;;;29.08;;
53309;SDS011;39197;53.200;5.792;2023-03-01T00:34:52;39.47;;;27.95;;
53309;SDS011;39197;53.200;5.792;2023-03-01T00:37:21;44.47;;;28.23;;
53309;SDS011;39197;53.200;5.792;2023-03-01T00:39:47;52.92;;;34.83;;
53309;SDS011;39197;53.200;5.792;2023-03-01T00:42:13;51.28;;;35.70;;
53309;SDS011;39197;53.200;5.792;2023-03-01T00:44:38;57.83;;;39.53;;
53309;SDS011;39197;53.200;5.792;2023-03-01T00:47:04;55.13;;;37.72;;
53309;SDS011;39197;53.200;5.792;2023-03-01T00:49:30;57.83;;;38.05;;
53309;SDS011;39197;53.200;5.792;2023-03-01T00:51:55;71.60;;;46.05;;
53309;SDS011;39197;53.200;5.792;2023-03-01T00:54:21;113.68;;;68.20;;
53309;SDS011;39197;53.200;5.792;2023-03-01T00:56:46;131.75;;;73.97;;
53309;SDS011;39197;53.200;5.792;2023-03-01T00:59:12;99.72;;;61.08;;
53309;SDS011;39197;53.200;5.792;2023-03-01T01:01:37;54.10;;;36.92;;
53309;SDS011;39197;53.200;5.792;2023-03-01T01:04:05;41.47;;;28.95;;
53309;SDS011;39197;53.200;5.792;2023-03-01T01:06:37;53.70;;;35.22;;
53309;SDS011;39197;53.200;5.792;2023-03-01T01:09:13;57.95;;;37.05;;
53309;SDS011;39197;53.200;5.792;2023-03-01T01:11:44;101.82;;;53.53;;
53309;SDS011;39197;53.200;5.792;2023-03-01T01:14:15;99.72;;;53.63;;
53309;SDS011;39197;53.200;5.792;2023-03-01T01:16:41;95.13;;;51.42;;
53309;SDS011;39197;53.200;5.792;2023-03-01T01:19:07;82.22;;;46.40;;
53309;SDS011;39197;53.200;5.792;2023-03-01T01:21:35;77.18;;;40.60;;
53309;SDS011;39197;53.200;5.792;2023-03-01T01:24:02;49.83;;;28.42;;
53309;SDS011;39197;53.200;5.792;2023-03-01T01:26:30;49.70;;;29.20;;
53309;SDS011;39197;53.200;5.792;2023-03-01T01:28:57;64.80;;;37.10;;
53309;SDS011;39197;53.200;5.792;2023-03-01T01:31:24;69.70;;;37.45;;
53309;SDS011;39197;53.200;5.792;2023-03-01T01:33:50;63.75;;;36.50;;
53309;SDS011;39197;53.200;5.792;2023-03-01T01:36:17;34.35;;;21.70;;
53309;SDS011;39197;53.200;5.792;2023-03-01T01:38:42;40.90;;;26.42;;
53309;SDS011;39197;53.200;5.792;2023-03-01T01:41:08;58.95;;;34.13;;
53309;SDS011;39197;53.200;5.792;2023-03-01T01:43:43;74.93;;;40.22;;
53309;SDS011;39197;53.200;5.792;2023-03-01T01:49:02;49.25;;;29.52;;
53309;SDS011;39197;53.200;5.792;2023-03-01T01:51:36;62.05;;;32.53;;
53309;SDS011;39197;53.200;5.792;2023-03-01T01:54:12;61.40;;;33.65;;
53309;SDS011;39197;53.200;5.792;2023-03-01T01:56:46;63.08;;;34.53;;
53309;SDS011;39197;53.200;5.792;2023-03-01T01:59:17;73.13;;;39.03;;
53309;SDS011;39197;53.200;5.792;2023-03-01T02:01:43;114.05;;;55.53;;
53309;SDS011;39197;53.200;5.792;2023-03-01T02:04:09;58.50;;;31.60;;
53309;SDS011;39197;53.200;5.792;2023-03-01T02:06:39;48.83;;;27.35;;
53309;SDS011;39197;53.200;5.792;2023-03-01T02:09:13;48.53;;;28.80;;
53309;SDS011;39197;53.200;5.792;2023-03-01T02:11:43;46.13;;;26.55;;
53309;SDS011;39197;53.200;5.792;2023-03-01T02:14:09;56.30;;;30.85;;
53309;SDS011;39197;53.200;5.792;2023-03-01T02:16:35;32.67;;;21.45;;
53309;SDS011;39197;53.200;5.792;2023-03-01T02:19:01;30.45;;;20.83;;
53309;SDS011;39197;53.200;5.792;2023-03-01T02:21:33;34.42;;;20.55;;
53309;SDS011;39197;53.200;5.792;2023-03-01T02:24:18;31.92;;;20.35;;
53309;SDS011;39197;53.200;5.792;2023-03-01T02:27:07;28.42;;;18.30;;
53309;SDS011;39197;53.200;5.792;2023-03-01T02:29:34;28.50;;;19.90;;
53309;SDS011;39197;53.200;5.792;2023-03-01T02:32:00;28.13;;;19.15;;
53309;SDS011;39197;53.200;5.792;2023-03-01T02:34:27;26.85;;;18.60;;
53309;SDS011;39197;53.200;5.792;2023-03-01T02:36:56;32.28;;;21.60;;
53309;SDS011;39197;53.200;5.792;2023-03-01T02:39:27;26.42;;;18.88;;
53309;SDS011;39197;53.200;5.792;2023-03-01T02:41:56;41.20;;;24.42;;
53309;SDS011;39197;53.200;5.792;2023-03-01T02:44:24;35.20;;;21.90;;
53309;SDS011;39197;53.200;5.792;2023-03-01T02:46:50;26.40;;;18.60;;
53309;SDS011;39197;53.200;5.792;2023-03-01T02:49:19;27.65;;;18.63;;
53309;SDS011;39197;53.200;5.792;2023-03-01T02:57:36;30.02;;;21.05;;
53309;SDS011;39197;53.200;5.792;2023-03-01T03:00:23;30.58;;;21.70;;
53309;SDS011;39197;53.200;5.792;2023-03-01T03:02:53;27.05;;;18.70;;
53309;SDS011;39197;53.200;5.792;2023-03-01T03:05:21;26.30;;;20.20;;
53309;SDS011;39197;53.200;5.792;2023-03-01T03:07:48;29.42;;;20.27;;
53309;SDS011;39197;53.200;5.792;2023-03-01T03:10:15;23.85;;;18.77;;
53309;SDS011;39197;53.200;5.792;2023-03-01T03:12:44;27.05;;;19.85;;
53309;SDS011;39197;53.200;5.792;2023-03-01T03:15:17;39.50;;;24.38;;
53309;SDS011;39197;53.200;5.792;2023-03-01T03:17:43;39.95;;;24.55;;
53309;SDS011;39197;53.200;5.792;2023-03-01T03:20:10;96.22;;;25.80;;
53309;SDS011;39197;53.200;5.792;2023-03-01T03:22:40;116.82;;;25.58;;
53309;SDS011;39197;53.200;5.792;2023-03-01T03:25:07;95.18;;;26.08;;
53309;SDS011;39197;53.200;5.792;2023-03-01T03:27:37;53.60;;;25.35;;
53309;SDS011;39197;53.200;5.792;2023-03-01T03:30:04;45.83;;;25.35;;
53309;SDS011;39197;53.200;5.792;2023-03-01T03:32:37;35.92;;;23.33;;
53309;SDS011;39197;53.200;5.792;2023-03-01T03:35:04;36.08;;;22.00;;
53309;SDS011;39197;53.200;5.792;2023-03-01T03:37:39;36.20;;;23.55;;
53309;SDS011;39197;53.200;5.792;2023-03-01T03:40:25;36.17;;;21.77;;
53309;SDS011;39197;53.200;5.792;2023-03-01T03:42:51;38.38;;;23.23;;
53309;SDS011;39197;53.200;5.792;2023-03-01T03:45:17;33.88;;;20.13;;
53309;SDS011;39197;53.200;5.792;2023-03-01T03:47:43;30.58;;;19.58;;
53309;SDS011;39197;53.200;5.792;2023-03-01T03:50:09;32.78;;;21.30;;
53309;SDS011;39197;53.200;5.792;2023-03-01T03:52:36;30.55;;;21.33;;
53309;SDS011;39197;53.200;5.792;2023-03-01T03:55:02;28.92;;;20.40;;
53309;SDS011;39197;53.200;5.792;2023-03-01T03:57:28;27.85;;;19.80;;
53309;SDS011;39197;53.200;5.792;2023-03-01T03:59:54;26.92;;;18.80;;
53309;SDS011;39197;53.200;5.792;2023-03-01T04:02:19;26.42;;;18.65;;
53309;SDS011;39197;53.200;5.792;2023-03-01T04:04:47;23.80;;;17.33;;
53309;SDS011;39197;53.200;5.792;2023-03-01T04:07:15;29.55;;;20.02;;
53309;SDS011;39197;53.200;5.792;2023-03-01T04:09:41;25.42;;;17.58;;
53309;SDS011;39197;53.200;5.792;2023-03-01T04:12:08;24.77;;;17.88;;
53309;SDS011;39197;53.200;5.792;2023-03-01T04:14:34;25.73;;;17.83;;
53309;SDS011;39197;53.200;5.792;2023-03-01T04:17:00;25.23;;;17.85;;
53309;SDS011;39197;53.200;5.792;2023-03-01T04:19:26;28.83;;;18.67;;
53309;SDS011;39197;53.200;5.792;2023-03-01T04:21:52;23.23;;;16.85;;
53309;SDS011;39197;53.200;5.792;2023-03-01T04:24:18;24.20;;;16.38;;
53309;SDS011;39197;53.200;5.792;2023-03-01T04:26:43;29.67;;;20.92;;
53309;SDS011;39197;53.200;5.792;2023-03-01T04:29:09;23.35;;;16.75;;
53309;SDS011;39197;53.200;5.792;2023-03-01T04:31:35;24.40;;;15.93;;
53309;SDS011;39197;53.200;5.792;2023-03-01T04:34:01;27.02;;;17.23;;
53309;SDS011;39197;53.200;5.792;2023-03-01T04:36:27;27.00;;;17.08;;
53309;SDS011;39197;53.200;5.792;2023-03-01T04:38:54;23.40;;;14.98;;
53309;SDS011;39197;53.200;5.792;2023-03-01T04:41:21;21.40;;;15.65;;
53309;SDS011;39197;53.200;5.792;2023-03-01T04:43:48;21.23;;;14.55;;
53309;SDS011;39197;53.200;5.792;2023-03-01T04:46:15;21.95;;;15.75;;
53309;SDS011;39197;53.200;5.792;2023-03-01T04:48:42;21.17;;;15.18;;
53309;SDS011;39197;53.200;5.792;2023-03-01T04:51:09;19.23;;;14.80;;
53309;SDS011;39197;53.200;5.792;2023-03-01T04:53:38;27.20;;;19.23;;
53309;SDS011;39197;53.200;5.792;2023-03-01T04:56:04;24.77;;;17.48;;
53309;SDS011;39197;53.200;5.792;2023-03-01T04:58:31;25.45;;;17.98;;
53309;SDS011;39197;53.200;5.792;2023-03-01T05:00:56;24.25;;;17.50;;
53309;SDS011;39197;53.200;5.792;2023-03-01T05:03:22;27.05;;;18.08;;
53309;SDS011;39197;53.200;5.792;2023-03-01T05:05:49;21.98;;;16.83;;
53309;SDS011;39197;53.200;5.792;2023-03-01T05:08:15;25.52;;;17.02;;
53309;SDS011;39197;53.200;5.792;2023-03-01T05:10:46;21.77;;;16.20;;
53309;SDS011;39197;53.200;5.792;2023-03-01T05:13:14;25.63;;;18.80;;
53309;SDS011;39197;53.200;5.792;2023-03-01T05:15:46;26.38;;;18.35;;
53309;SDS011;39197;53.200;5.792;2023-03-01T05:18:13;23.20;;;16.10;;
53309;SDS011;39197;53.200;5.792;2023-03-01T05:20:38;21.55;;;15.63;;
53309;SDS011;39197;53.200;5.792;2023-03-01T05:23:04;26.20;;;17.08;;
53309;SDS011;39197;53.200;5.792;2023-03-01T05:25:30;25.05;;;16.90;;
53309;SDS011;39197;53.200;5.792;2023-03-01T05:27:59;28.08;;;18.48;;
53309;SDS011;39197;53.200;5.792;2023-03-01T05:30:29;29.77;;;17.90;;
53309;SDS011;39197;53.200;5.792;2023-03-01T05:32:55;30.70;;;20.60;;
53309;SDS011;39197;53.200;5.792;2023-03-01T05:35:21;25.77;;;18.40;;
53309;SDS011;39197;53.200;5.792;2023-03-01T05:37:48;23.50;;;17.42;;
53309;SDS011;39197;53.200;5.792;2023-03-01T05:40:15;26.80;;;18.05;;
53309;SDS011;39197;53.200;5.792;2023-03-01T05:42:49;24.45;;;17.75;;
53309;SDS011;39197;53.200;5.792;2023-03-01T05:45:20;22.65;;;17.45;;
53309;SDS011;39197;53.200;5.792;2023-03-01T05:47:47;26.45;;;17.70;;
53309;SDS011;39197;53.200;5.792;2023-03-01T05:52:46;23.00;;;17.95;;
53309;SDS011;39197;53.200;5.792;2023-03-01T05:55:12;29.48;;;20.20;;
53309;SDS011;39197;53.200;5.792;2023-03-01T05:57:37;25.73;;;17.58;;
53309;SDS011;39197;53.200;5.792;2023-03-01T06:00:03;30.42;;;19.30;;
53309;SDS011;39197;53.200;5.792;2023-03-01T06:02:31;30.33;;;19.08;;
53309;SDS011;39197;53.200;5.792;2023-03-01T06:04:56;26.90;;;18.92;;
53309;SDS011;39197;53.200;5.792;2023-03-01T06:07:22;25.10;;;18.17;;
53309;SDS011;39197;53.200;5.792;2023-03-01T06:09:48;26.60;;;18.10;;
53309;SDS011;39197;53.200;5.792;2023-03-01T06:12:13;26.50;;;18.85;;
53309;SDS011;39197;53.200;5.792;2023-03-01T06:14:39;22.13;;;16.70;;
53309;SDS011;39197;53.200;5.792;2023-03-01T06:17:04;23.73;;;17.17;;
53309;SDS011;39197;53.200;5.792;2023-03-01T06:19:30;20.42;;;15.07;;
53309;SDS011;39197;53.200;5.792;2023-03-01T06:21:55;23.38;;;15.68;;
53309;SDS011;39197;53.200;5.792;2023-03-01T06:24:21;20.08;;;14.50;;
53309;SDS011;39197;53.200;5.792;2023-03-01T06:26:46;20.67;;;14.80;;
53309;SDS011;39197;53.200;5.792;2023-03-01T06:29:12;19.88;;;14.20;;
53309;SDS011;39197;53.200;5.792;2023-03-01T06:31:39;19.33;;;14.20;;
53309;SDS011;39197;53.200;5.792;2023-03-01T06:34:05;18.35;;;13.68;;
53309;SDS011;39197;53.200;5.792;2023-03-01T06:36:30;18.98;;;13.68;;
53309;SDS011;39197;53.200;5.792;2023-03-01T06:38:56;14.25;;;11.57;;
53309;SDS011;39197;53.200;5.792;2023-03-01T06:41:22;13.40;;;10.93;;
53309;SDS011;39197;53.200;5.792;2023-03-01T06:43:47;12.57;;;11.23;;
53309;SDS011;39197;53.200;5.792;2023-03-01T06:46:13;15.70;;;12.18;;
53309;SDS011;39197;53.200;5.792;2023-03-01T06:48:38;12.35;;;10.32;;
53309;SDS011;39197;53.200;5.792;2023-03-01T06:51:04;14.73;;;11.63;;
53309;SDS011;39197;53.200;5.792;2023-03-01T06:53:30;12.82;;;11.05;;
53309;SDS011;39197;53.200;5.792;2023-03-01T06:55:56;13.00;;;11.38;;
53309;SDS011;39197;53.200;5.792;2023-03-01T06:58:22;15.13;;;11.35;;
53309;SDS011;39197;53.200;5.792;2023-03-01T07:00:47;12.10;;;10.25;;
53309;SDS011;39197;53.200;5.792;2023-03-01T07:03:13;14.32;;;11.68;;
53309;SDS011;39197;53.200;5.792;2023-03-01T07:05:39;13.55;;;10.85;;
53309;SDS011;39197;53.200;5.792;2023-03-01T07:08:04;15.73;;;11.02;;
53309;SDS011;39197;53.200;5.792;2023-03-01T07:10:30;13.52;;;11.32;;
53309;SDS011;39197;53.200;5.792;2023-03-01T07:12:56;12.50;;;10.75;;
53309;SDS011;39197;53.200;5.792;2023-03-01T07:15:22;13.10;;;10.98;;
53309;SDS011;39197;53.200;5.792;2023-03-01T07:17:48;16.25;;;11.93;;
53309;SDS011;39197;53.200;5.792;2023-03-01T07:20:15;14.35;;;12.20;;
53309;SDS011;39197;53.200;5.792;2023-03-01T07:22:42;34.60;;;26.35;;
53309;SDS011;39197;53.200;5.792;2023-03-01T07:25:08;16.05;;;12.77;;
53309;SDS011;39197;53.200;5.792;2023-03-01T07:27:35;16.08;;;12.82;;
53309;SDS011;39197;53.200;5.792;2023-03-01T07:30:00;16.67;;;13.52;;
53309;SDS011;39197;53.200;5.792;2023-03-01T07:32:26;18.27;;;13.80;;
53309;SDS011;39197;53.200;5.792;2023-03-01T07:34:52;20.30;;;15.35;;
53309;SDS011;39197;53.200;5.792;2023-03-01T07:37:17;22.90;;;16.95;;
53309;SDS011;39197;53.200;5.792;2023-03-01T07:39:43;20.45;;;15.88;;
53309;SDS011;39197;53.200;5.792;2023-03-01T07:42:08;22.05;;;16.08;;
53309;SDS011;39197;53.200;5.792;2023-03-01T07:44:34;23.00;;;15.45;;
53309;SDS011;39197;53.200;5.792;2023-03-01T07:47:00;18.17;;;14.32;;
53309;SDS011;39197;53.200;5.792;2023-03-01T07:49:26;23.98;;;16.45;;
53309;SDS011;39197;53.200;5.792;2023-03-01T07:51:52;16.35;;;12.60;;
53309;SDS011;39197;53.200;5.792;2023-03-01T07:54:17;14.23;;;11.73;;
53309;SDS011;39197;53.200;5.792;2023-03-01T07:56:43;15.93;;;12.40;;
53309;SDS011;39197;53.200;5.792;2023-03-01T07:59:09;17.05;;;12.90;;
53309;SDS011;39197;53.200;5.792;2023-03-01T08:01:34;14.13;;;11.27;;
53309;SDS011;39197;53.200;5.792;2023-03-01T08:04:00;17.45;;;13.23;;
53309;SDS011;39197;53.200;5.792;2023-03-01T08:06:26;19.13;;;13.90;;
53309;SDS011;39197;53.200;5.792;2023-03-01T08:08:52;21.05;;;16.40;;
53309;SDS011;39197;53.200;5.792;2023-03-01T08:11:20;23.00;;;16.73;;
53309;SDS011;39197;53.200;5.792;2023-03-01T08:13:49;19.77;;;16.60;;
53309;SDS011;39197;53.200;5.792;2023-03-01T08:16:15;21.77;;;16.92;;
53309;SDS011;39197;53.200;5.792;2023-03-01T08:18:41;19.50;;;15.73;;
53309;SDS011;39197;53.200;5.792;2023-03-01T08:21:11;23.35;;;16.85;;
53309;SDS011;39197;53.200;5.792;2023-03-01T08:23:39;22.52;;;16.92;;
53309;SDS011;39197;53.200;5.792;2023-03-01T08:26:12;19.30;;;14.90;;
53309;SDS011;39197;53.200;5.792;2023-03-01T08:28:40;17.77;;;15.38;;
53309;SDS011;39197;53.200;5.792;2023-03-01T08:31:16;20.85;;;15.10;;
53309;SDS011;39197;53.200;5.792;2023-03-01T08:33:42;18.17;;;14.45;;
53309;SDS011;39197;53.200;5.792;2023-03-01T08:36:08;18.27;;;14.30;;
53309;SDS011;39197;53.200;5.792;2023-03-01T08:38:34;18.70;;;13.75;;
53309;SDS011;39197;53.200;5.792;2023-03-01T08:41:01;20.38;;;14.48;;
53309;SDS011;39197;53.200;5.792;2023-03-01T08:43:27;16.65;;;14.38;;
53309;SDS011;39197;53.200;5.792;2023-03-01T08:45:53;16.33;;;12.98;;
53309;SDS011;39197;53.200;5.792;2023-03-01T08:48:18;15.93;;;12.73;;
53309;SDS011;39197;53.200;5.792;2023-03-01T08:50:44;16.70;;;13.98;;
53309;SDS011;39197;53.200;5.792;2023-03-01T08:53:10;14.35;;;12.50;;
53309;SDS011;39197;53.200;5.792;2023-03-01T08:55:36;14.57;;;12.10;;
53309;SDS011;39197;53.200;5.792;2023-03-01T08:58:01;14.27;;;12.38;;
53309;SDS011;39197;53.200;5.792;2023-03-01T09:00:27;18.77;;;16.77;;
53309;SDS011;39197;53.200;5.792;2023-03-01T09:02:53;14.15;;;11.40;;
53309;SDS011;39197;53.200;5.792;2023-03-01T09:05:18;12.23;;;11.02;;
53309;SDS011;39197;53.200;5.792;2023-03-01T09:07:44;15.00;;;10.85;;
53309;SDS011;39197;53.200;5.792;2023-03-01T09:10:09;12.52;;;11.20;;
53309;SDS011;39197;53.200;5.792;2023-03-01T09:12:36;12.45;;;11.25;;
53309;SDS011;39197;53.200;5.792;2023-03-01T09:15:02;11.20;;;10.10;;
53309;SDS011;39197;53.200;5.792;2023-03-01T09:17:28;13.10;;;10.23;;
53309;SDS011;39197;53.200;5.792;2023-03-01T09:19:54;10.43;;;9.32;;
53309;SDS011;39197;53.200;5.792;2023-03-01T09:22:19;10.35;;;8.27;;
53309;SDS011;39197;53.200;5.792;2023-03-01T09:24:45;8.20;;;7.28;;
53309;SDS011;39197;53.200;5.792;2023-03-01T09:27:10;9.73;;;8.20;;
53309;SDS011;39197;53.200;5.792;2023-03-01T09:29:38;9.48;;;8.55;;
53309;SDS011;39197;53.200;5.792;2023-03-01T09:32:04;10.43;;;8.57;;
53309;SDS011;39197;53.200;5.792;2023-03-01T09:34:30;11.45;;;9.05;;
53309;SDS011;39197;53.200;5.792;2023-03-01T09:36:57;10.63;;;9.57;;
53309;SDS011;39197;53.200;5.792;2023-03-01T09:39:22;10.45;;;9.45;;
53309;SDS011;39197;53.200;5.792;2023-03-01T09:47:03;10.27;;;9.27;;
53309;SDS011;39197;53.200;5.792;2023-03-01T09:49:30;11.70;;;9.63;;
53309;SDS011;39197;53.200;5.792;2023-03-01T09:54:54;14.48;;;11.38;;
53309;SDS011;39197;53.200;5.792;2023-03-01T09:58:15;16.00;;;14.38;;
53309;SDS011;39197;53.200;5.792;2023-03-01T10:06:00;13.75;;;11.43;;
53309;SDS011;39197;53.200;5.792;2023-03-01T10:08:42;14.48;;;12.82;;
53309;SDS011;39197;53.200;5.792;2023-03-01T10:11:26;15.40;;;13.15;;
53309;SDS011;39197;53.200;5.792;2023-03-01T10:13:58;14.15;;;12.52;;
53309;SDS011;39197;53.200;5.792;2023-03-01T10:16:28;30.67;;;19.93;;
53309;SDS011;39197;53.200;5.792;2023-03-01T10:19:32;11.80;;;9.55;;
53309;SDS011;39197;53.200;5.792;2023-03-01T10:22:25;12.77;;;10.02;;
53309;SDS011;39197;53.200;5.792;2023-03-01T10:24:57;15.38;;;9.38;;
53309;SDS011;39197;53.200;5.792;2023-03-01T10:27:25;18.42;;;14.23;;
53309;SDS011;39197;53.200;5.792;2023-03-01T10:32:44;11.15;;;8.52;;
53309;SDS011;39197;53.200;5.792;2023-03-01T10:35:32;13.75;;;9.40;;
53309;SDS011;39197;53.200;5.792;2023-03-01T10:38:08;12.50;;;11.32;;
53309;SDS011;39197;53.200;5.792;2023-03-01T10:40:51;14.90;;;13.13;;
53309;SDS011;39197;53.200;5.792;2023-03-01T10:43:48;11.50;;;10.20;;
53309;SDS011;39197;53.200;5.792;2023-03-01T10:46:30;9.32;;;8.32;;
53309;SDS011;39197;53.200;5.792;2023-03-01T10:49:21;8.90;;;8.00;;
53309;SDS011;39197;53.200;5.792;2023-03-01T10:51:51;8.18;;;7.43;;
53309;SDS011;39197;53.200;5.792;2023-03-01T10:56:50;9.25;;;8.23;;
53309;SDS011;39197;53.200;5.792;2023-03-01T11:02:13;9.07;;;7.97;;
53309;SDS011;39197;53.200;5.792;2023-03-01T11:04:56;8.02;;;6.70;;
53309;SDS011;39197;53.200;5.792;2023-03-01T11:07:23;9.15;;;6.63;;
53309;SDS011;39197;53.200;5.792;2023-03-01T11:09:48;7.68;;;6.85;;
53309;SDS011;39197;53.200;5.792;2023-03-01T11:12:14;9.00;;;7.43;;
53309;SDS011;39197;53.200;5.792;2023-03-01T11:14:51;12.13;;;10.02;;
53309;SDS011;39197;53.200;5.792;2023-03-01T11:17:21;7.53;;;6.80;;
53309;SDS011;39197;53.200;5.792;2023-03-01T11:20:02;7.63;;;6.55;;
53309;SDS011;39197;53.200;5.792;2023-03-01T11:22:30;8.85;;;7.30;;
53309;SDS011;39197;53.200;5.792;2023-03-01T11:24:59;7.88;;;7.18;;
53309;SDS011;39197;53.200;5.792;2023-03-01T11:27:27;8.07;;;7.22;;
53309;SDS011;39197;53.200;5.792;2023-03-01T11:29:58;7.93;;;7.13;;
53309;SDS011;39197;53.200;5.792;2023-03-01T11:33:33;7.78;;;7.07;;
53309;SDS011;39197;53.200;5.792;2023-03-01T11:35:49;10.13;;;6.82;;
53309;SDS011;39197;53.200;5.792;2023-03-01T11:38:23;9.07;;;6.70;;
53309;SDS011;39197;53.200;5.792;2023-03-01T11:40:52;7.47;;;6.63;;
53309;SDS011;39197;53.200;5.792;2023-03-01T11:52:04;13.23;;;9.68;;
53309;SDS011;39197;53.200;5.792;2023-03-01T12:05:34;9.02;;;8.07;;
53309;SDS011;39197;53.200;5.792;2023-03-01T12:16:40;10.63;;;9.68;;
53309;SDS011;39197;53.200;5.792;2023-03-01T12:22:31;10.60;;;9.52;;
53309;SDS011;39197;53.200;5.792;2023-03-01T12:27:38;11.60;;;9.30;;
53309;SDS011;39197;53.200;5.792;2023-03-01T12:39:19;9.77;;;8.77;;
53309;SDS011;39197;53.200;5.792;2023-03-01T12:44:57;13.05;;;10.90;;
53309;SDS011;39197;53.200;5.792;2023-03-01T12:50:19;10.75;;;9.73;;
53309;SDS011;39197;53.200;5.792;2023-03-01T12:52:51;13.30;;;11.95;;
53309;SDS011;39197;53.200;5.792;2023-03-01T12:55:33;11.57;;;10.20;;
53309;SDS011;39197;53.200;5.792;2023-03-01T13:03:51;11.32;;;10.23;;
53309;SDS011;39197;53.200;5.792;2023-03-01T13:06:35;10.88;;;9.55;;
53309;SDS011;39197;53.200;5.792;2023-03-01T13:11:58;17.13;;;13.65;;
53309;SDS011;39197;53.200;5.792;2023-03-01T13:16:53;10.25;;;8.98;;
53309;SDS011;39197;53.200;5.792;2023-03-01T13:19:23;10.98;;;9.88;;
53309;SDS011;39197;53.200;5.792;2023-03-01T13:21:52;10.20;;;9.18;;
53309;SDS011;39197;53.200;5.792;2023-03-01T13:35:01;9.85;;;8.95;;
53309;SDS011;39197;53.200;5.792;2023-03-01T13:37:40;12.77;;;8.90;;
53309;SDS011;39197;53.200;5.792;2023-03-01T13:42:44;12.95;;;8.73;;
53309;SDS011;39197;53.200;5.792;2023-03-01T13:47:58;10.50;;;9.60;;
53309;SDS011;39197;53.200;5.792;2023-03-01T13:50:28;10.95;;;9.05;;
53309;SDS011;39197;53.200;5.792;2023-03-01T13:52:59;15.38;;;11.70;;
53309;SDS011;39197;53.200;5.792;2023-03-01T13:55:30;10.82;;;9.60;;
53309;SDS011;39197;53.200;5.792;2023-03-01T13:58:21;11.75;;;8.98;;
53309;SDS011;39197;53.200;5.792;2023-03-01T14:01:34;9.45;;;8.57;;
53309;SDS011;39197;53.200;5.792;2023-03-01T14:03:51;11.50;;;10.40;;
53309;SDS011;39197;53.200;5.792;2023-03-01T14:06:22;13.70;;;12.35;;
53309;SDS011;39197;53.200;5.792;2023-03-01T14:08:50;11.73;;;10.52;;
53309;SDS011;39197;53.200;5.792;2023-03-01T14:17:33;11.30;;;10.18;;
53309;SDS011;39197;53.200;5.792;2023-03-01T14:20:17;10.48;;;9.48;;
53309;SDS011;39197;53.200;5.792;2023-03-01T14:22:45;10.52;;;9.48;;
53309;SDS011;39197;53.200;5.792;2023-03-01T14:27:50;11.57;;;9.77;;
53309;SDS011;39197;53.200;5.792;2023-03-01T14:30:30;10.55;;;9.45;;
53309;SDS011;39197;53.200;5.792;2023-03-01T14:32:57;12.00;;;10.00;;
53309;SDS011;39197;53.200;5.792;2023-03-01T14:35:26;15.07;;;10.80;;
53309;SDS011;39197;53.200;5.792;2023-03-01T14:37:56;11.13;;;10.02;;
53309;SDS011;39197;53.200;5.792;2023-03-01T14:42:50;13.30;;;10.88;;
53309;SDS011;39197;53.200;5.792;2023-03-01T14:45:17;12.85;;;11.65;;
53309;SDS011;39197;53.200;5.792;2023-03-01T14:47:43;11.05;;;9.90;;
53309;SDS011;39197;53.200;5.792;2023-03-01T14:52:54;10.52;;;9.45;;
53309;SDS011;39197;53.200;5.792;2023-03-01T14:55:33;10.60;;;9.60;;
53309;SDS011;39197;53.200;5.792;2023-03-01T14:58:08;10.02;;;9.02;;
53309;SDS011;39197;53.200;5.792;2023-03-01T15:00:36;11.07;;;9.30;;
53309;SDS011;39197;53.200;5.792;2023-03-01T15:03:07;9.70;;;8.70;;
53309;SDS011;39197;53.200;5.792;2023-03-01T15:05:38;13.98;;;11.57;;
53309;SDS011;39197;53.200;5.792;2023-03-01T15:08:05;9.75;;;8.85;;
53309;SDS011;39197;53.200;5.792;2023-03-01T15:10:35;9.85;;;8.48;;
53309;SDS011;39197;53.200;5.792;2023-03-01T15:13:11;8.82;;;7.93;;
53309;SDS011;39197;53.200;5.792;2023-03-01T15:15:43;12.82;;;8.95;;
53309;SDS011;39197;53.200;5.792;2023-03-01T15:18:32;11.30;;;8.13;;
53309;SDS011;39197;53.200;5.792;2023-03-01T15:21:14;19.13;;;14.80;;
53309;SDS011;39197;53.200;5.792;2023-03-01T15:23:47;12.85;;;9.40;;
53309;SDS011;39197;53.200;5.792;2023-03-01T15:26:30;11.57;;;9.68;;
53309;SDS011;39197;53.200;5.792;2023-03-01T15:29:10;13.35;;;11.98;;
53309;SDS011;39197;53.200;5.792;2023-03-01T15:31:41;12.63;;;10.55;;
53309;SDS011;39197;53.200;5.792;2023-03-01T15:34:29;7.93;;;6.82;;
53309;SDS011;39197;53.200;5.792;2023-03-01T15:37:02;10.75;;;7.95;;
53309;SDS011;39197;53.200;5.792;2023-03-01T15:39:43;8.93;;;7.95;;
53309;SDS011;39197;53.200;5.792;2023-03-01T15:45:10;9.73;;;8.73;;
53309;SDS011;39197;53.200;5.792;2023-03-01T15:47:49;10.52;;;9.18;;
53309;SDS011;39197;53.200;5.792;2023-03-01T15:50:19;10.27;;;7.65;;
53309;SDS011;39197;53.200;5.792;2023-03-01T15:52:47;9.55;;;8.40;;
53309;SDS011;39197;53.200;5.792;2023-03-01T15:55:18;8.93;;;8.02;;
53309;SDS011;39197;53.200;5.792;2023-03-01T15:57:46;12.48;;;10.38;;
53309;SDS011;39197;53.200;5.792;2023-03-01T16:00:13;14.98;;;11.88;;
53309;SDS011;39197;53.200;5.792;2023-03-01T16:02:40;10.50;;;9.50;;
53309;SDS011;39197;53.200;5.792;2023-03-01T16:05:50;19.77;;;13.25;;
53309;SDS011;39197;53.200;5.792;2023-03-01T16:07:57;11.45;;;8.32;;
53309;SDS011;39197;53.200;5.792;2023-03-01T16:10:23;12.73;;;10.55;;
53309;SDS011;39197;53.200;5.792;2023-03-01T16:12:50;9.65;;;8.65;;
53309;SDS011;39197;53.200;5.792;2023-03-01T16:15:38;12.45;;;9.38;;
53309;SDS011;39197;53.200;5.792;2023-03-01T16:18:04;13.68;;;11.68;;
53309;SDS011;39197;53.200;5.792;2023-03-01T16:20:31;13.88;;;11.68;;
53309;SDS011;39197;53.200;5.792;2023-03-01T16:23:01;11.70;;;10.50;;
53309;SDS011;39197;53.200;5.792;2023-03-01T16:25:28;12.55;;;11.25;;
53309;SDS011;39197;53.200;5.792;2023-03-01T16:27:54;14.98;;;11.73;;
53309;SDS011;39197;53.200;5.792;2023-03-01T16:30:21;15.63;;;13.10;;
53309;SDS011;39197;53.200;5.792;2023-03-01T16:32:48;16.50;;;12.80;;
53309;SDS011;39197;53.200;5.792;2023-03-01T16:35:15;13.95;;;12.45;;
53309;SDS011;39197;53.200;5.792;2023-03-01T16:37:42;21.27;;;17.63;;
53309;SDS011;39197;53.200;5.792;2023-03-01T16:40:19;21.25;;;14.93;;
53309;SDS011;39197;53.200;5.792;2023-03-01T16:42:50;20.08;;;14.02;;
53309;SDS011;39197;53.200;5.792;2023-03-01T16:45:16;19.75;;;16.00;;
53309;SDS011;39197;53.200;5.792;2023-03-01T16:47:43;18.10;;;14.55;;